Time;durP1;ratioP1;P1;durP2;ratioP2;P2;SDS_P1;SDS_P2;PMS_P1;PMS_P2;Temp;Humidity;BMP_temperature;BMP_pressure;BME280_temperature;BME280_humidity;BME280_pressure;Samples;Min_cycle;Max_cycle;Signal;HPM_P1;HPM_P2
2022/01/04 00:02:04;;;;;;;14.82;3.78;;;8.90;99.90;;;;;;6340725;22;20015;-76
2022/01/04 00:04:30;;;;;;;16.70;3.97;;;8.90;99.90;;;;;;6340625;22;20006;-76
2022/01/04 00:06:57;;;;;;;11.05;3.83;;;8.90;99.90;;;;;;6340198;22;20430;-76
2022/01/04 00:09:23;;;;;;;10.63;3.25;;;8.80;99.90;;;;;;6339786;22;19998;-78
2022/01/04 00:14:18;;;;;;;11.20;3.65;;;8.80;99.90;;;;;;6341403;22;20007;-77
2022/01/04 00:16:44;;;;;;;19.33;4.03;;;8.90;99.90;;;;;;6312594;22;20002;-76
2022/01/04 00:19:10;;;;;;;18.95;4.22;;;8.90;99.90;;;;;;6340207;22;20040;-76
2022/01/04 00:21:36;;;;;;;14.43;3.72;;;8.80;99.90;;;;;;6340224;22;20003;-76
2022/01/04 00:24:02;;;;;;;14.93;3.88;;;8.80;99.90;;;;;;6339964;22;20137;-76
2022/01/04 00:26:29;;;;;;;14.43;3.92;;;8.90;99.90;;;;;;6339907;22;20429;-76
2022/01/04 00:28:54;;;;;;;15.38;4.78;;;8.90;99.90;;;;;;6312244;22;20011;-76
2022/01/04 00:31:21;;;;;;;12.48;4.03;;;8.90;99.90;;;;;;6340212;22;20025;-77
2022/01/04 00:33:47;;;;;;;14.00;4.20;;;9.00;99.90;;;;;;6340135;22;20030;-76
2022/01/04 00:36:13;;;;;;;10.57;3.40;;;9.00;99.90;;;;;;6312295;22;20055;-76
2022/01/04 00:38:38;;;;;;;16.25;4.78;;;9.00;99.90;;;;;;6340008;22;20003;-76
2022/01/04 00:41:04;;;;;;;8.73;3.63;;;9.00;99.90;;;;;;6312139;22;20147;-77
2022/01/04 00:43:30;;;;;;;14.68;4.22;;;8.90;99.90;;;;;;6339698;22;20007;-76
2022/01/04 00:45:55;;;;;;;15.82;4.50;;;8.90;99.90;;;;;;6340221;22;20006;-77
2022/01/04 00:50:47;;;;;;;15.10;4.68;;;8.80;99.90;;;;;;6340226;22;20010;-77
2022/01/04 00:53:12;;;;;;;14.43;4.35;;;8.80;99.90;;;;;;6339624;22;20010;-76
2022/01/04 00:55:39;;;;;;;10.65;3.33;;;8.80;99.90;;;;;;6312117;22;20003;-76
2022/01/04 00:58:05;;;;;;;7.55;3.50;;;8.80;99.90;;;;;;6339859;22;20073;-77
2022/01/04 01:00:31;;;;;;;10.65;4.22;;;8.80;99.90;;;;;;6339327;22;20082;-76
2022/01/04 01:02:57;;;;;;;17.48;3.97;;;8.80;99.90;;;;;;6340075;22;20041;-76
2022/01/04 01:05:25;;;;;;;13.85;4.15;;;8.90;99.90;;;;;;6340480;22;19999;-77
2022/01/04 01:07:52;;;;;;;14.77;4.65;;;8.80;99.90;;;;;;6339520;22;20003;-76
2022/01/04 01:10:42;;;;;;;13.40;3.22;;;8.90;99.90;;;;;;6311809;22;20003;-76
2022/01/04 01:13:10;;;;;;;14.30;4.72;;;8.80;99.90;;;;;;6311784;22;19999;-77
2022/01/04 01:15:37;;;;;;;13.40;4.53;;;8.70;99.90;;;;;;6340035;22;19995;-76
2022/01/04 01:18:03;;;;;;;16.48;4.63;;;8.70;99.90;;;;;;6339400;22;20125;-76
2022/01/04 01:20:29;;;;;;;14.57;4.55;;;8.70;99.90;;;;;;6339973;22;19995;-76
2022/01/04 01:22:54;;;;;;;14.38;4.25;;;8.70;99.90;;;;;;6313402;22;20009;-77
2022/01/04 01:25:21;;;;;;;18.08;4.80;;;8.70;99.90;;;;;;6340833;22;20066;-77
2022/01/04 01:27:46;;;;;;;13.88;4.57;;;8.70;99.90;;;;;;6340622;22;20468;-77
2022/01/04 01:30:13;;;;;;;14.85;4.93;;;8.70;99.90;;;;;;6340893;22;19999;-76
2022/01/04 01:32:38;;;;;;;12.32;4.53;;;8.70;99.90;;;;;;6340605;22;20006;-76
2022/01/04 01:35:05;;;;;;;15.35;4.85;;;8.70;99.90;;;;;;6340747;22;20073;-76
2022/01/04 01:37:31;;;;;;;26.27;5.00;;;8.70;99.90;;;;;;6313116;22;19995;-76
2022/01/04 01:39:56;;;;;;;18.17;4.93;;;8.70;99.90;;;;;;6340645;22;20073;-76
2022/01/04 01:42:23;;;;;;;14.50;4.72;;;8.70;99.90;;;;;;6340724;22;20033;-76
2022/01/04 01:44:49;;;;;;;17.52;5.32;;;8.60;99.90;;;;;;6313015;22;20014;-76
2022/01/04 01:47:14;;;;;;;16.30;4.28;;;8.70;99.90;;;;;;6341348;22;20003;-76
2022/01/04 01:49:40;;;;;;;14.30;4.97;;;8.70;99.90;;;;;;6312985;22;19999;-76
2022/01/04 01:52:06;;;;;;;11.40;4.28;;;8.70;99.90;;;;;;6340751;22;20006;-75
2022/01/04 01:54:31;;;;;;;9.23;4.25;;;8.70;99.90;;;;;;6341172;22;20052;-76
2022/01/04 01:56:57;;;;;;;11.23;4.75;;;8.70;99.90;;;;;;6340491;22;20418;-76
2022/01/04 01:59:22;;;;;;;13.43;4.65;;;8.70;99.90;;;;;;6312984;22;19999;-76
2022/01/04 02:01:48;;;;;;;18.83;4.53;;;8.70;99.90;;;;;;6340334;22;20422;-76
2022/01/04 02:04:14;;;;;;;16.58;5.28;;;8.70;99.90;;;;;;6340763;22;20372;-76
2022/01/04 02:06:40;;;;;;;9.63;4.82;;;8.70;99.90;;;;;;6340693;22;20077;-76
2022/01/04 02:09:05;;;;;;;10.75;4.38;;;8.70;99.90;;;;;;6340279;22;20081;-77
2022/01/04 02:11:31;;;;;;;16.80;4.47;;;8.70;99.90;;;;;;6340169;22;20469;-75
2022/01/04 02:13:58;;;;;;;14.30;5.13;;;8.70;99.90;;;;;;6341676;22;20026;-76
2022/01/04 02:16:29;;;;;;;11.98;5.03;;;8.60;99.90;;;;;;6312662;22;19998;-76
2022/01/04 02:19:03;;;;;;;11.43;5.15;;;8.60;99.90;;;;;;6312749;22;20434;-76
2022/01/04 02:21:30;;;;;;;7.65;3.92;;;8.70;99.90;;;;;;6340299;22;19995;-76
2022/01/04 02:23:56;;;;;;;12.20;4.88;;;8.60;99.90;;;;;;6340202;22;20003;-77
2022/01/04 02:26:22;;;;;;;18.90;5.97;;;8.60;99.90;;;;;;6340255;22;20021;-76
2022/01/04 02:28:49;;;;;;;11.35;4.10;;;8.60;99.90;;;;;;6339939;22;20346;-77
2022/01/04 02:31:15;;;;;;;14.23;4.93;;;8.50;99.90;;;;;;6339565;22;20311;-76
2022/01/04 02:33:40;;;;;;;12.90;5.18;;;8.60;99.90;;;;;;6340028;22;20112;-77
2022/01/04 02:36:06;;;;;;;15.77;5.38;;;8.60;99.90;;;;;;6340037;22;20010;-75
2022/01/04 02:38:33;;;;;;;11.40;4.53;;;8.60;99.90;;;;;;6339974;22;20326;-76
2022/01/04 02:40:59;;;;;;;12.18;5.65;;;8.50;99.90;;;;;;6312451;22;20026;-76
2022/01/04 02:43:25;;;;;;;12.10;5.47;;;8.50;99.90;;;;;;6340162;22;20074;-76
2022/01/04 02:45:50;;;;;;;12.63;4.97;;;8.40;99.90;;;;;;6312605;22;20470;-77
2022/01/04 02:48:16;;;;;;;12.30;5.00;;;8.50;99.90;;;;;;6339975;22;20034;-76
2022/01/04 02:50:41;;;;;;;11.75;5.10;;;8.40;99.90;;;;;;6312389;22;20010;-76
2022/01/04 02:53:07;;;;;;;17.25;6.28;;;8.50;99.90;;;;;;6312415;22;20492;-76
2022/01/04 02:55:33;;;;;;;16.85;5.50;;;8.40;99.90;;;;;;6340744;22;20033;-76
2022/01/04 02:57:58;;;;;;;12.55;6.00;;;8.30;99.90;;;;;;6339992;22;20031;-76
2022/01/04 03:00:25;;;;;;;16.38;5.60;;;8.30;99.90;;;;;;6339838;22;19995;-75
2022/01/04 03:02:52;;;;;;;13.98;6.10;;;8.30;99.90;;;;;;6312334;22;20029;-76
2022/01/04 03:05:18;;;;;;;15.82;6.55;;;8.30;99.90;;;;;;6340194;22;20007;-76
2022/01/04 03:07:46;;;;;;;15.93;6.18;;;8.40;99.90;;;;;;6339829;22;20009;-76
2022/01/04 03:10:12;;;;;;;;;;;8.20;99.90;;;;;;6312707;22;20010;-76
2022/01/04 03:12:44;;;;;;;14.23;5.85;;;8.40;99.90;;;;;;6340428;22;20035;-75
2022/01/04 03:15:13;;;;;;;12.20;5.68;;;8.50;99.90;;;;;;6340209;22;20433;-76
2022/01/04 03:17:40;;;;;;;15.95;6.13;;;8.40;99.90;;;;;;6339686;22;19995;-76
2022/01/04 03:20:07;;;;;;;14.57;6.07;;;8.40;99.90;;;;;;6339717;22;20006;-76
2022/01/04 03:22:32;;;;;;;15.25;6.15;;;8.40;99.90;;;;;;6312082;22;20407;-76
2022/01/04 03:24:58;;;;;;;13.45;5.47;;;8.40;99.90;;;;;;6339674;22;20030;-76
2022/01/04 03:27:24;;;;;;;12.88;5.65;;;8.40;99.90;;;;;;6339495;22;20082;-77
2022/01/04 03:29:49;;;;;;;14.15;5.53;;;8.40;99.90;;;;;;6339590;22;20069;-76
2022/01/04 03:32:15;;;;;;;15.43;5.97;;;8.50;99.90;;;;;;6311943;22;20011;-76
2022/01/04 03:34:40;;;;;;;17.05;6.40;;;8.50;99.90;;;;;;6339924;22;20003;-76
2022/01/04 03:37:06;;;;;;;18.50;6.28;;;8.50;99.90;;;;;;6340309;22;20017;-76
2022/01/04 03:39:31;;;;;;;15.75;6.72;;;8.50;99.90;;;;;;6311864;22;20003;-75
2022/01/04 03:41:57;;;;;;;13.13;6.13;;;8.60;99.90;;;;;;6312043;22;20003;-76
2022/01/04 03:44:22;;;;;;;22.50;6.05;;;8.60;99.90;;;;;;6339799;22;20074;-76
2022/01/04 03:46:50;;;;;;;19.52;6.70;;;8.60;99.90;;;;;;6339386;22;20002;-75
2022/01/04 03:49:15;;;;;;;16.42;7.03;;;8.50;99.90;;;;;;6311908;22;20007;-76
2022/01/04 03:51:41;;;;;;;15.65;5.97;;;8.50;99.90;;;;;;6311727;22;20087;-76
2022/01/04 03:54:07;;;;;;;19.63;6.13;;;8.50;99.90;;;;;;6311842;22;20044;-75
2022/01/04 03:56:33;;;;;;;24.58;7.10;;;8.50;99.90;;;;;;6339487;22;20530;-75
2022/01/04 03:58:58;;;;;;;13.88;5.88;;;8.50;99.90;;;;;;6339360;22;20009;-75
2022/01/04 04:01:24;;;;;;;17.85;6.65;;;8.50;99.90;;;;;;6339622;22;19999;-76
2022/01/04 04:03:49;;;;;;;17.90;7.07;;;8.50;99.90;;;;;;6339688;22;20385;-77
2022/01/04 04:06:15;;;;;;;15.32;5.53;;;8.50;99.90;;;;;;6311688;22;20007;-76
2022/01/04 04:08:40;;;;;;;17.95;5.85;;;8.50;99.90;;;;;;6339246;22;19999;-76
2022/01/04 04:11:06;;;;;;;15.95;6.30;;;8.50;99.90;;;;;;6339389;22;20008;-76
2022/01/04 04:13:32;;;;;;;15.25;6.28;;;8.50;99.90;;;;;;6339588;22;20006;-75
2022/01/04 04:15:57;;;;;;;14.60;6.43;;;8.50;99.90;;;;;;6311628;22;19995;-76
2022/01/04 04:18:23;;;;;;;13.35;5.25;;;8.50;99.90;;;;;;6339289;22;20070;-76
2022/01/04 04:20:48;;;;;;;13.52;5.45;;;8.60;99.90;;;;;;6311736;22;19999;-76
2022/01/04 04:23:14;;;;;;;17.42;6.20;;;8.50;99.90;;;;;;6312668;22;20410;-76
2022/01/04 04:25:40;;;;;;;11.45;5.20;;;8.50;99.90;;;;;;6339589;22;20003;-76
2022/01/04 04:28:06;;;;;;;17.05;5.38;;;8.50;99.90;;;;;;6339442;22;20461;-76
2022/01/04 04:30:32;;;;;;;15.23;5.28;;;8.50;99.90;;;;;;6339957;22;20074;-75
2022/01/04 04:32:57;;;;;;;14.85;6.22;;;8.50;99.90;;;;;;6311419;22;20022;-76
2022/01/04 04:35:23;;;;;;;17.52;6.18;;;8.40;99.90;;;;;;6339151;22;20023;-75
2022/01/04 04:37:49;;;;;;;22.58;6.45;;;8.50;99.90;;;;;;6339110;22;19994;-76
2022/01/04 04:40:14;;;;;;;10.95;5.35;;;8.50;99.90;;;;;;6338975;22;20009;-75
2022/01/04 04:42:40;;;;;;;16.90;5.20;;;8.50;99.90;;;;;;6339095;22;20075;-75
2022/01/04 04:45:06;;;;;;;16.55;6.13;;;8.50;99.90;;;;;;6339299;22;20010;-75
2022/01/04 04:47:32;;;;;;;18.42;5.47;;;8.50;99.90;;;;;;6339098;22;20003;-78
2022/01/04 04:49:58;;;;;;;16.13;6.13;;;8.40;99.90;;;;;;6339116;22;20025;-76
2022/01/04 04:52:23;;;;;;;14.13;5.05;;;8.50;99.90;;;;;;6339021;22;20007;-76
2022/01/04 04:54:49;;;;;;;15.95;5.63;;;8.50;99.90;;;;;;6339083;22;19998;-77
2022/01/04 04:57:15;;;;;;;14.48;6.07;;;8.50;99.90;;;;;;6339128;22;19998;-76
2022/01/04 04:59:41;;;;;;;14.55;6.03;;;8.40;99.90;;;;;;6311306;22;19999;-76
2022/01/04 05:02:07;;;;;;;14.38;5.88;;;8.40;99.90;;;;;;6339012;22;20082;-76
2022/01/04 05:04:37;;;;;;;11.77;4.68;;;8.40;99.90;;;;;;6311390;22;20030;-77
2022/01/04 05:07:04;;;;;;;16.13;6.05;;;8.30;99.90;;;;;;6311169;22;20334;-76
2022/01/04 05:09:29;;;;;;;17.83;5.47;;;8.30;99.90;;;;;;6338924;22;20128;-78
2022/01/04 05:11:55;;;;;;;17.38;4.88;;;8.30;99.90;;;;;;6311067;22;20434;-77
2022/01/04 05:14:20;;;;;;;15.05;6.22;;;8.30;99.90;;;;;;6339711;22;20168;-77
2022/01/04 05:16:46;;;;;;;14.18;5.00;;;8.30;99.90;;;;;;6339517;22;20005;-77
2022/01/04 05:19:12;;;;;;;13.63;5.53;;;8.30;99.90;;;;;;6338968;22;19999;-76
2022/01/04 05:21:38;;;;;;;15.52;5.10;;;8.30;99.90;;;;;;6339243;22;20376;-77
2022/01/04 05:24:04;;;;;;;13.63;5.10;;;8.30;99.90;;;;;;6339233;22;20049;-77
2022/01/04 05:26:29;;;;;;;15.45;5.75;;;8.30;99.90;;;;;;6338947;22;19999;-76
2022/01/04 05:28:55;;;;;;;11.60;4.80;;;8.30;99.90;;;;;;6310932;22;20075;-77
2022/01/04 05:31:20;;;;;;;16.10;5.40;;;8.30;99.90;;;;;;6338837;22;20420;-77
2022/01/04 05:33:46;;;;;;;13.18;5.78;;;8.30;99.90;;;;;;6338759;22;20056;-77
2022/01/04 05:36:12;;;;;;;16.33;6.03;;;8.30;99.90;;;;;;6311185;22;20052;-77
2022/01/04 05:38:37;;;;;;;16.75;5.88;;;8.30;99.90;;;;;;6311130;22;20002;-77
2022/01/04 05:41:03;;;;;;;16.85;5.97;;;8.30;99.90;;;;;;6338676;22;20006;-77
2022/01/04 05:43:28;;;;;;;13.90;6.40;;;8.40;99.90;;;;;;6311171;22;20085;-77
2022/01/04 05:45:54;;;;;;;13.35;6.05;;;8.30;99.90;;;;;;6311284;22;20060;-77
2022/01/04 05:48:20;;;;;;;19.90;7.05;;;8.30;99.90;;;;;;6338652;22;20007;-77
2022/01/04 05:50:46;;;;;;;11.63;6.15;;;8.30;99.90;;;;;;6339053;22;20003;-77
2022/01/04 05:53:12;;;;;;;16.88;7.40;;;8.30;99.90;;;;;;6338680;22;20137;-76
2022/01/04 05:55:37;;;;;;;12.90;5.95;;;8.40;99.90;;;;;;6311026;22;19995;-76
2022/01/04 05:58:03;;;;;;;18.92;7.10;;;8.40;99.90;;;;;;6338824;22;19999;-76
2022/01/04 06:00:28;;;;;;;12.63;5.72;;;8.40;99.90;;;;;;6338727;22;19999;-77
2022/01/04 06:02:55;;;;;;;19.75;7.00;;;8.30;99.90;;;;;;6338692;22;20026;-77
2022/01/04 06:05:20;;;;;;;16.08;5.82;;;8.20;99.90;;;;;;6339550;22;20013;-76
2022/01/04 06:07:46;;;;;;;16.80;6.78;;;8.20;99.90;;;;;;6340838;22;20011;-77
2022/01/04 06:10:13;;;;;;;13.45;5.57;;;8.20;99.90;;;;;;6341256;22;19990;-76
2022/01/04 06:15:07;;;;;;;14.27;5.68;;;8.30;99.90;;;;;;6341383;22;20082;-76
2022/01/04 06:17:35;;;;;;;22.20;6.25;;;8.30;99.90;;;;;;6340391;22;20007;-76
2022/01/04 06:20:04;;;;;;;13.38;6.38;;;8.30;99.90;;;;;;6340522;22;20037;-77
2022/01/04 06:22:30;;;;;;;14.35;6.57;;;8.30;99.90;;;;;;6312899;22;20086;-77
2022/01/04 06:24:55;;;;;;;13.05;6.18;;;8.30;99.90;;;;;;6340558;22;20035;-77
2022/01/04 06:27:22;;;;;;;14.02;5.90;;;8.30;99.90;;;;;;6340804;22;20515;-77
2022/01/04 06:29:48;;;;;;;15.60;6.15;;;8.30;99.90;;;;;;6340167;22;20079;-76
2022/01/04 06:32:14;;;;;;;17.80;6.32;;;8.40;99.90;;;;;;6340502;22;20003;-77
2022/01/04 06:34:41;;;;;;;12.35;5.50;;;8.30;99.90;;;;;;6340625;22;20003;-77
2022/01/04 06:37:08;;;;;;;17.17;6.82;;;8.30;99.90;;;;;;6340293;22;20026;-76
2022/01/04 06:39:34;;;;;;;15.55;6.00;;;8.30;99.90;;;;;;6340098;22;19995;-77
2022/01/04 06:41:59;;;;;;;11.55;5.32;;;8.30;99.90;;;;;;6340182;22;20010;-77
2022/01/04 06:44:25;;;;;;;12.77;6.35;;;8.20;99.90;;;;;;6340559;22;20082;-77
2022/01/04 06:46:51;;;;;;;12.13;5.47;;;8.30;99.90;;;;;;6340048;22;20372;-76
2022/01/04 06:49:18;;;;;;;11.30;5.47;;;8.30;99.90;;;;;;6339979;22;20360;-75
2022/01/04 06:51:45;;;;;;;19.17;5.85;;;8.30;99.90;;;;;;6340470;22;20086;-77
2022/01/04 06:54:11;;;;;;;12.32;5.68;;;8.30;99.90;;;;;;6340671;22;20017;-78
2022/01/04 06:56:37;;;;;;;15.63;5.90;;;8.20;99.90;;;;;;6312613;22;20482;-77
2022/01/04 06:59:05;;;;;;;12.73;4.85;;;8.20;99.90;;;;;;6340711;22;19999;-78
2022/01/04 07:01:31;;;;;;;13.45;5.63;;;8.20;99.90;;;;;;6340470;22;20006;-77
2022/01/04 07:03:56;;;;;;;12.40;5.57;;;8.20;99.90;;;;;;6312445;22;20141;-76
2022/01/04 07:06:22;;;;;;;13.88;6.07;;;8.30;99.90;;;;;;6340458;22;20387;-77
2022/01/04 07:08:48;;;;;;;13.05;5.70;;;8.20;99.90;;;;;;6340345;22;19991;-77
2022/01/04 07:11:14;;;;;;;12.45;6.13;;;8.20;99.90;;;;;;6312384;22;20029;-77
2022/01/04 07:13:40;;;;;;;13.93;5.63;;;8.20;99.90;;;;;;6340261;22;20054;-77
2022/01/04 07:16:05;;;;;;;14.40;5.95;;;8.20;99.90;;;;;;6312531;22;20046;-73
2022/01/04 07:18:31;;;;;;;17.98;5.80;;;8.20;99.90;;;;;;6339331;22;19995;-73
2022/01/04 07:20:57;;;;;;;15.55;6.75;;;8.30;99.90;;;;;;6339753;22;19999;-73
2022/01/04 07:23:23;;;;;;;14.20;6.07;;;8.30;99.90;;;;;;6340066;22;20005;-75
2022/01/04 07:25:49;;;;;;;12.02;6.00;;;8.20;99.90;;;;;;6339972;22;20003;-73
2022/01/04 07:28:15;;;;;;;19.80;7.20;;;8.30;99.90;;;;;;6339334;22;20011;-73
2022/01/04 07:30:41;;;;;;;12.95;5.80;;;8.20;99.90;;;;;;6340383;22;20300;-75
2022/01/04 07:33:06;;;;;;;13.95;5.38;;;8.20;99.90;;;;;;6339523;22;20011;-74
2022/01/04 07:35:32;;;;;;;14.77;6.72;;;8.20;99.90;;;;;;6339655;22;19999;-74
2022/01/04 07:37:58;;;;;;;18.60;7.03;;;8.20;99.90;;;;;;6339531;22;19995;-74
2022/01/04 07:40:24;;;;;;;15.23;6.03;;;8.20;99.90;;;;;;6312055;22;20044;-74
2022/01/04 07:42:50;;;;;;;12.02;5.72;;;8.20;99.90;;;;;;6339980;22;20082;-74
2022/01/04 07:45:16;;;;;;;15.43;6.93;;;8.20;99.90;;;;;;6312037;22;20010;-74
2022/01/04 07:47:42;;;;;;;19.23;6.55;;;8.20;99.90;;;;;;6339791;22;20003;-74
2022/01/04 07:50:11;;;;;;;17.48;6.55;;;8.30;99.90;;;;;;6339473;22;20010;-74
2022/01/04 07:52:37;;;;;;;16.65;6.30;;;8.30;99.90;;;;;;6339771;22;20060;-75
2022/01/04 07:55:04;;;;;;;15.52;6.53;;;8.30;99.90;;;;;;6339716;22;19998;-75
2022/01/04 07:57:29;;;;;;;14.35;6.28;;;8.20;99.90;;;;;;6339427;22;20128;-75
2022/01/04 07:59:55;;;;;;;20.63;7.10;;;8.30;99.90;;;;;;6339347;22;20022;-75
2022/01/04 08:02:20;;;;;;;13.77;6.05;;;8.20;99.90;;;;;;6339474;22;19999;-75
2022/01/04 08:04:46;;;;;;;18.25;6.38;;;8.20;99.90;;;;;;6339683;22;20010;-74
2022/01/04 08:07:12;;;;;;;16.83;5.82;;;8.30;99.90;;;;;;6339653;22;20002;-75
2022/01/04 08:09:37;;;;;;;15.25;6.45;;;8.30;99.90;;;;;;6339225;22;19998;-75
2022/01/04 08:12:04;;;;;;;14.70;5.60;;;8.30;99.90;;;;;;6339293;22;20002;-75
2022/01/04 08:14:29;;;;;;;14.15;5.63;;;8.30;99.90;;;;;;6339827;22;19995;-75
2022/01/04 08:16:55;;;;;;;16.60;6.82;;;8.30;99.90;;;;;;6339375;22;19999;-75
2022/01/04 08:19:20;;;;;;;20.90;7.20;;;8.20;99.90;;;;;;6339236;22;20084;-75
2022/01/04 08:21:46;;;;;;;15.98;6.88;;;8.20;99.90;;;;;;6339362;22;20081;-75
2022/01/04 08:24:11;;;;;;;21.98;7.82;;;8.20;99.90;;;;;;6311642;22;20472;-75
2022/01/04 08:26:37;;;;;;;18.77;7.32;;;8.20;99.90;;;;;;6339573;22;20009;-75
2022/01/04 08:29:03;;;;;;;16.20;6.78;;;8.20;99.90;;;;;;6311087;22;20105;-74
2022/01/04 08:31:28;;;;;;;15.35;6.88;;;8.30;99.90;;;;;;6339526;22;20127;-75
2022/01/04 08:33:54;;;;;;;20.92;7.43;;;8.20;99.90;;;;;;6339148;22;20006;-76
2022/01/04 08:36:21;;;;;;;15.77;5.88;;;8.20;99.90;;;;;;6339140;22;20002;-75
2022/01/04 08:38:47;;;;;;;14.35;6.97;;;8.20;99.90;;;;;;6311349;22;20056;-74
2022/01/04 08:41:13;;;;;;;23.33;6.97;;;8.20;99.90;;;;;;6339235;22;19995;-74
2022/01/04 08:43:38;;;;;;;15.93;6.57;;;8.20;99.90;;;;;;6339101;22;20030;-74
2022/01/04 08:46:04;;;;;;;16.30;6.53;;;8.20;99.90;;;;;;6339477;22;20029;-75
2022/01/04 08:48:29;;;;;;;16.02;5.93;;;8.20;99.90;;;;;;6311461;22;20005;-74
2022/01/04 08:50:55;;;;;;;15.07;6.38;;;8.20;99.90;;;;;;6339013;22;20051;-74
2022/01/04 08:53:20;;;;;;;16.50;5.75;;;8.20;99.90;;;;;;6311187;22;20009;-74
2022/01/04 08:55:47;;;;;;;17.65;6.25;;;8.20;99.90;;;;;;6311399;22;20434;-74
2022/01/04 08:58:13;;;;;;;19.63;6.35;;;8.30;99.90;;;;;;6339287;22;20003;-75
2022/01/04 09:00:39;;;;;;;15.25;6.35;;;8.20;99.90;;;;;;6339326;22;20432;-75
2022/01/04 09:03:04;;;;;;;20.30;6.30;;;8.20;99.90;;;;;;6311307;22;20002;-74
2022/01/04 09:05:30;;;;;;;16.05;5.70;;;8.20;99.90;;;;;;6339245;22;20003;-75
2022/01/04 09:07:56;;;;;;;18.23;6.97;;;8.30;99.90;;;;;;6339147;22;20005;-75
2022/01/04 09:10:22;;;;;;;20.10;6.60;;;8.30;99.90;;;;;;6338850;22;20003;-75
2022/01/04 09:15:45;;;;;;;16.38;6.68;;;8.40;99.90;;;;;;6339394;22;20054;-75
2022/01/04 09:20:55;;;;;;;18.20;7.45;;;8.40;99.90;;;;;;6339635;22;20014;-74
2022/01/04 09:23:22;;;;;;;17.77;6.25;;;8.40;99.90;;;;;;6338882;22;20003;-74
2022/01/04 09:25:52;;;;;;;15.07;6.53;;;8.40;99.90;;;;;;6338874;22;20418;-75
2022/01/04 09:28:19;;;;;;;21.15;6.15;;;8.40;99.90;;;;;;6310980;22;20445;-75
2022/01/04 09:30:48;;;;;;;16.58;6.18;;;8.40;99.90;;;;;;6338876;22;20010;-75
2022/01/04 09:33:14;;;;;;;;;;;8.40;99.90;;;;;;6311786;22;20003;-76
2022/01/04 09:35:41;;;;;;;10.30;4.30;;;8.50;99.90;;;;;;6311805;22;19905;-74
2022/01/04 09:38:06;;;;;;;10.15;4.57;;;8.50;99.90;;;;;;6338999;22;20003;-75
2022/01/04 09:40:35;;;;;;;9.70;3.25;;;8.50;99.90;;;;;;6311253;22;20480;-75
2022/01/04 09:43:03;;;;;;;18.60;3.65;;;8.50;99.90;;;;;;6313106;22;20369;-75
2022/01/04 09:45:29;;;;;;;10.43;4.07;;;8.50;99.90;;;;;;6340999;22;20003;-74
2022/01/04 09:47:54;;;;;;;8.25;3.72;;;8.40;99.90;;;;;;6313012;22;20499;-75
2022/01/04 09:50:20;;;;;;;10.90;3.90;;;8.40;99.90;;;;;;6313796;22;20010;-75
2022/01/04 09:52:47;;;;;;;14.20;3.63;;;8.50;99.90;;;;;;6340322;22;20074;-74
2022/01/04 09:55:15;;;;;;;11.88;3.80;;;8.50;99.90;;;;;;6340595;22;20074;-74
2022/01/04 09:57:45;;;;;;;10.75;3.80;;;8.50;99.90;;;;;;6312852;22;19994;-75
2022/01/04 10:00:14;;;;;;;8.90;3.47;;;8.50;99.90;;;;;;6341229;22;20048;-75
2022/01/04 10:02:41;;;;;;;8.65;3.00;;;8.60;99.90;;;;;;6312934;22;20007;-75
2022/01/04 10:05:29;;;;;;;10.05;2.83;;;8.60;99.90;;;;;;6341089;22;20006;-75
2022/01/04 10:08:03;;;;;;;10.93;3.45;;;8.60;99.90;;;;;;6340498;22;20011;-75
2022/01/04 10:10:30;;;;;;;9.70;4.03;;;8.60;99.90;;;;;;6340381;22;20003;-75
2022/01/04 10:13:01;;;;;;;11.48;4.63;;;8.60;99.90;;;;;;6340610;22;20006;-75
2022/01/04 10:15:42;;;;;;;10.88;4.15;;;8.60;99.90;;;;;;6340344;22;20052;-76
2022/01/04 10:18:21;;;;;;;9.15;3.80;;;8.60;99.90;;;;;;6340320;22;19999;-75
2022/01/04 10:21:12;;;;;;;11.85;4.15;;;8.60;99.90;;;;;;6312809;22;20429;-75
2022/01/04 10:24:05;;;;;;;11.95;3.97;;;8.70;99.90;;;;;;6312644;22;20425;-75
2022/01/04 10:26:37;;;;;;;11.35;4.25;;;8.80;99.90;;;;;;6335536;22;20013;-75
2022/01/04 10:29:20;;;;;;;14.30;4.63;;;8.80;99.90;;;;;;6340067;22;20011;-75
2022/01/04 10:31:46;;;;;;;14.27;4.50;;;8.80;99.90;;;;;;6340232;22;20426;-76
2022/01/04 10:34:11;;;;;;;12.13;4.22;;;8.80;99.90;;;;;;6340241;22;19995;-75
2022/01/04 10:36:39;;;;;;;17.17;5.25;;;8.80;99.90;;;;;;6340176;22;20006;-76
2022/01/04 10:39:08;;;;;;;13.52;4.60;;;8.90;99.90;;;;;;6340762;22;20002;-75
2022/01/04 10:41:34;;;;;;;11.50;4.57;;;9.00;99.90;;;;;;6312601;22;20003;-75
2022/01/04 10:44:09;;;;;;;14.70;3.35;;;9.00;99.90;;;;;;6340373;22;20321;-75
2022/01/04 10:46:43;;;;;;;11.05;3.08;;;9.00;99.90;;;;;;6340033;22;20322;-75
2022/01/04 10:49:24;;;;;;;14.20;3.30;;;9.10;99.90;;;;;;6340259;22;20326;-75
2022/01/04 10:52:10;;;;;;;11.70;2.95;;;9.20;99.90;;;;;;6339809;22;19995;-75
2022/01/04 10:54:36;;;;;;;6.18;1.90;;;9.30;99.90;;;;;;6340237;22;20375;-75
2022/01/04 10:57:07;;;;;;;10.27;2.33;;;9.30;99.90;;;;;;6339864;22;20070;-75
2022/01/04 10:59:33;;;;;;;19.00;2.10;;;9.30;99.90;;;;;;6339870;22;19995;-75
2022/01/04 11:01:59;;;;;;;13.43;2.60;;;9.40;99.90;;;;;;6340174;22;20009;-76
2022/01/04 11:04:24;;;;;;;11.35;1.73;;;9.30;99.90;;;;;;6339800;22;20026;-75
2022/01/04 11:06:58;;;;;;;7.65;0.98;;;9.40;99.90;;;;;;6339787;22;20002;-75
2022/01/04 11:09:24;;;;;;;9.90;1.83;;;9.40;99.90;;;;;;6312248;22;20034;-75
2022/01/04 11:11:50;;;;;;;17.45;1.30;;;9.40;99.90;;;;;;6339696;22;19999;-74
2022/01/04 11:14:15;;;;;;;17.50;1.52;;;9.40;99.90;;;;;;6340469;22;19999;-74
2022/01/04 11:16:42;;;;;;;14.82;0.70;;;9.40;99.90;;;;;;6312242;22;20315;-75
2022/01/04 11:19:08;;;;;;;15.77;1.13;;;9.30;99.90;;;;;;6339631;22;20433;-75
2022/01/04 11:21:41;;;;;;;13.40;0.80;;;9.30;99.90;;;;;;6339744;22;20005;-75
2022/01/04 11:24:12;;;;;;;6.50;0.57;;;9.30;99.90;;;;;;6339751;22;20379;-75
2022/01/04 11:26:43;;;;;;;7.65;0.63;;;9.30;99.90;;;;;;6312179;22;20007;-75
2022/01/04 11:29:09;;;;;;;11.73;0.30;;;9.20;99.90;;;;;;6339483;22;20003;-75
2022/01/04 11:32:04;;;;;;;3.40;0.17;;;9.20;99.90;;;;;;6339487;22;19995;-75
2022/01/04 11:35:00;;;;;;;8.68;0.10;;;9.10;99.90;;;;;;6333274;22;20082;-75
2022/01/04 11:37:26;;;;;;;1.23;0.00;;;9.10;99.90;;;;;;6312053;22;19999;-74
2022/01/04 11:39:52;;;;;;;4.75;0.45;;;9.10;99.90;;;;;;6339569;22;20096;-75
2022/01/04 11:42:34;;;;;;;4.57;0.20;;;9.10;99.90;;;;;;6311868;22;20085;-75
2022/01/04 11:45:01;;;;;;;1.38;0.00;;;9.10;99.90;;;;;;6340193;22;20322;-75
2022/01/04 11:47:32;;;;;;;1.08;0.00;;;9.00;99.90;;;;;;6311947;22;20375;-75
2022/01/04 11:50:10;;;;;;;2.00;0.00;;;9.00;99.90;;;;;;6339432;22;20086;-75
2022/01/04 11:52:55;;;;;;;3.70;0.22;;;9.00;99.90;;;;;;6340199;22;20330;-75
2022/01/04 11:55:36;;;;;;;1.85;0.00;;;8.90;99.90;;;;;;6311754;22;19999;-75
2022/01/04 11:58:14;;;;;;;2.72;0.00;;;8.90;99.90;;;;;;6339415;22;19994;-75
2022/01/04 12:00:46;;;;;;;4.85;0.00;;;8.80;99.90;;;;;;6339334;22;19995;-75
2022/01/04 12:03:13;;;;;;;0.50;0.00;;;8.80;99.90;;;;;;6340165;22;19999;-75
2022/01/04 12:05:59;;;;;;;2.58;0.00;;;8.80;99.90;;;;;;6312069;22;20007;-76
2022/01/04 12:08:32;;;;;;;3.35;0.30;;;8.80;99.90;;;;;;6339584;22;20009;-76
2022/01/04 12:10:57;;;;;;;1.27;0.00;;;8.80;99.90;;;;;;6339739;22;20375;-75
2022/01/04 12:13:25;;;;;;;2.42;0.30;;;8.70;99.90;;;;;;6339936;22;19999;-76
2022/01/04 12:15:52;;;;;;;1.13;0.00;;;8.70;99.90;;;;;;6339376;22;20051;-75
2022/01/04 12:18:23;;;;;;;2.05;0.10;;;8.70;99.90;;;;;;6339193;22;20472;-75
2022/01/04 12:20:51;;;;;;;0.65;0.00;;;8.60;99.90;;;;;;6339305;22;20139;-75
2022/01/04 12:23:26;;;;;;;5.72;0.28;;;8.60;99.90;;;;;;6339250;22;20003;-75
2022/01/04 12:28:44;;;;;;;0.63;0.00;;;8.50;99.90;;;;;;6340368;22;20021;-75
2022/01/04 12:31:19;;;;;;;4.25;0.05;;;8.40;99.90;;;;;;6311576;22;20444;-75
2022/01/04 12:33:53;;;;;;;1.25;0.45;;;8.40;99.90;;;;;;6311375;22;20006;-75
2022/01/04 12:36:33;;;;;;;0.17;0.03;;;8.40;99.90;;;;;;6339914;22;20052;-76
2022/01/04 12:39:05;;;;;;;1.30;0.00;;;8.40;99.90;;;;;;6311430;22;20026;-76
2022/01/04 12:41:32;;;;;;;0.32;0.00;;;8.40;99.90;;;;;;6339362;22;20082;-76
2022/01/04 12:43:59;;;;;;;0.32;0.05;;;8.40;99.90;;;;;;6339397;22;20003;-75
2022/01/04 12:46:34;;;;;;;2.03;0.00;;;8.50;99.90;;;;;;6339063;22;20051;-76
2022/01/04 12:49:03;;;;;;;1.17;0.15;;;8.50;99.90;;;;;;6339060;22;20003;-76
2022/01/04 12:51:38;;;;;;;0.20;0.00;;;8.60;99.90;;;;;;6339097;22;20002;-75
2022/01/04 12:54:09;;;;;;;1.70;0.00;;;8.60;99.90;;;;;;6311283;22;20338;-75
2022/01/04 12:57:05;;;;;;;2.25;0.00;;;8.60;99.90;;;;;;6311382;22;20010;-75
2022/01/04 12:59:35;;;;;;;0.73;0.00;;;8.60;99.90;;;;;;6338938;22;20006;-75
2022/01/04 13:02:03;;;;;;;0.52;0.20;;;8.50;99.90;;;;;;6339047;22;20006;-75
2022/01/04 13:04:34;;;;;;;0.00;0.00;;;8.30;99.90;;;;;;6311356;22;20318;-76
2022/01/04 13:07:03;;;;;;;1.50;0.05;;;8.10;99.90;;;;;;6339266;22;20073;-76